createdAt,value
2022-08-21T00:00:42.387Z,91.73
2022-08-21T00:03:13.605Z,92.39
2022-08-21T00:05:47.648Z,94.01
2022-08-21T00:08:15.810Z,94.87
2022-08-21T00:10:45.706Z,94.16
2022-08-21T00:13:18.745Z,93.31
2022-08-21T00:15:47.537Z,94.00
2022-08-21T00:18:16.172Z,94.73
2022-08-21T00:20:47.721Z,94.02
2022-08-21T00:23:16.504Z,93.22
2022-08-21T00:25:46.285Z,94.89
2022-08-21T00:28:15.440Z,94.85
2022-08-21T00:30:45.520Z,93.99
2022-08-21T00:33:15.129Z,94.33
2022-08-21T00:35:45.920Z,93.19
2022-08-21T00:38:14.251Z,93.98
2022-08-21T00:40:47.652Z,91.92
2022-08-21T00:43:19.761Z,94.53
2022-08-21T00:45:47.971Z,94.22
2022-08-21T00:48:16.147Z,94.68
2022-08-21T00:50:55.229Z,95.73
2022-08-21T00:53:25.561Z,95.93
2022-08-21T00:55:54.025Z,95.46
2022-08-21T00:58:26.174Z,96.00
2022-08-21T01:00:54.938Z,96.92
2022-08-21T01:03:26.407Z,97.29
2022-08-21T01:05:56.474Z,97.71
2022-08-21T01:08:25.627Z,100.00
2022-08-21T01:10:56.980Z,99.99
2022-08-21T01:13:26.340Z,100.00
2022-08-21T01:15:58.611Z,97.82
2022-08-21T01:18:26.864Z,94.95
2022-08-21T01:21:08.355Z,97.50
2022-08-21T01:23:38.745Z,97.33
2022-08-21T01:26:08.364Z,96.12
2022-08-21T01:28:44.789Z,97.00
2022-08-21T01:31:26.260Z,95.15
2022-08-21T01:33:56.464Z,96.35
2022-08-21T01:36:27.620Z,97.08
2022-08-21T01:38:55.636Z,96.75
2022-08-21T01:41:23.820Z,94.35
2022-08-21T01:43:52.061Z,92.91
2022-08-21T01:46:20.256Z,94.51
2022-08-21T01:48:48.165Z,91.12
2022-08-21T01:51:16.208Z,91.64
2022-08-21T01:53:45.421Z,90.14
2022-08-21T01:56:17.746Z,89.12
2022-08-21T01:58:48.843Z,86.57
2022-08-21T02:01:17.034Z,84.04
2022-08-21T02:03:44.972Z,83.40
2022-08-21T02:06:18.870Z,82.59
2022-08-21T02:08:49.163Z,84.23
2022-08-21T02:11:17.270Z,82.59
2022-08-21T02:13:45.147Z,81.98
2022-08-21T02:16:17.301Z,81.84
2022-08-21T02:18:48.102Z,81.33
2022-08-21T02:21:16.537Z,80.53
2022-08-21T02:23:44.756Z,80.59
2022-08-21T02:26:14.482Z,80.81
2022-08-21T02:28:43.264Z,81.48
2022-08-21T02:31:11.939Z,81.32
2022-08-21T02:33:39.994Z,81.76
2022-08-21T02:36:09.973Z,82.21
2022-08-21T02:38:42.524Z,82.12
2022-08-21T02:41:16.220Z,82.38
2022-08-21T02:43:44.663Z,81.84
2022-08-21T02:46:16.227Z,81.85
2022-08-21T02:48:44.211Z,81.31
2022-08-21T02:51:15.944Z,81.74
2022-08-21T02:53:44.643Z,81.96
2022-08-21T02:56:18.101Z,82.17
2022-08-21T02:58:51.893Z,82.20
2022-08-21T03:01:21.274Z,82.57
2022-08-21T03:03:51.767Z,81.98
2022-08-21T03:06:22.551Z,81.25
2022-08-21T03:08:51.845Z,81.14
2022-08-21T03:11:21.718Z,81.58
2022-08-21T03:13:49.535Z,81.73
2022-08-21T03:16:17.384Z,81.14
2022-08-21T03:18:45.214Z,80.74
2022-08-21T03:21:14.099Z,80.51
2022-08-21T03:23:42.947Z,79.76
2022-08-21T03:26:12.510Z,79.84
2022-08-21T03:28:41.957Z,80.08
2022-08-21T03:31:09.826Z,79.39
2022-08-21T03:33:37.719Z,79.31
2022-08-21T03:36:09.587Z,79.38
2022-08-21T03:38:39.727Z,79.69
2022-08-21T03:41:08.973Z,79.40
2022-08-21T03:43:37.331Z,79.01
2022-08-21T03:46:08.192Z,78.89
2022-08-21T03:48:39.243Z,79.49
2022-08-21T03:51:08.509Z,79.65
2022-08-21T03:53:37.324Z,78.72
2022-08-21T03:56:07.027Z,79.25
2022-08-21T03:58:35.471Z,78.58
2022-08-21T04:01:07.134Z,79.10
2022-08-21T04:03:38.071Z,78.85
2022-08-21T04:06:07.413Z,78.50
2022-08-21T04:08:35.828Z,78.44
2022-08-21T04:11:04.280Z,78.00
2022-08-21T04:13:32.199Z,77.75
2022-08-21T04:16:00.278Z,77.86
2022-08-21T04:18:29.832Z,77.73
2022-08-21T04:21:01.672Z,77.85
2022-08-21T04:23:30.641Z,78.52
2022-08-21T04:25:59.268Z,77.85
2022-08-21T04:28:30.440Z,78.67
2022-08-21T04:30:59.839Z,77.50
2022-08-21T04:33:30.166Z,77.13
2022-08-21T04:35:57.998Z,77.75
2022-08-21T04:38:25.870Z,77.02
2022-08-21T04:40:54.637Z,76.87
2022-08-21T04:43:24.333Z,77.97
2022-08-21T04:45:54.216Z,77.18
2022-08-21T04:48:25.102Z,77.07
2022-08-21T04:51:01.484Z,76.97
2022-08-21T04:53:39.033Z,77.08
2022-08-21T04:56:13.680Z,77.61
2022-08-21T04:58:43.452Z,77.36
2022-08-21T05:01:19.197Z,77.47
2022-08-21T05:03:51.220Z,77.00
2022-08-21T05:06:22.310Z,77.29
2022-08-21T05:08:57.138Z,76.89
2022-08-21T05:11:31.818Z,77.34
2022-08-21T05:14:00.334Z,77.12
2022-08-21T05:16:37.368Z,77.03
2022-08-21T05:19:06.603Z,76.56
2022-08-21T05:21:39.435Z,77.43
2022-08-21T05:24:07.592Z,76.74
2022-08-21T05:26:45.366Z,76.93
2022-08-21T05:29:16.393Z,76.76
2022-08-21T05:31:44.633Z,76.64
2022-08-21T05:34:12.831Z,76.68
2022-08-21T05:36:46.517Z,75.91
2022-08-21T05:39:14.806Z,76.13
2022-08-21T05:41:42.971Z,76.71
2022-08-21T05:44:11.377Z,77.30
2022-08-21T05:46:39.878Z,77.26
2022-08-21T05:49:07.715Z,76.02
2022-08-21T05:51:36.225Z,75.57
2022-08-21T05:54:05.770Z,74.91
2022-08-21T05:56:34.152Z,76.53
2022-08-21T05:59:01.964Z,74.95
2022-08-21T06:01:31.628Z,74.91
2022-08-21T06:03:59.666Z,75.32
2022-08-21T06:06:29.336Z,74.77
2022-08-21T06:08:57.201Z,74.93
2022-08-21T06:11:29.021Z,75.11
2022-08-21T06:13:57.543Z,73.88
2022-08-21T06:16:25.728Z,76.25
2022-08-21T06:18:53.811Z,75.64
2022-08-21T06:21:21.892Z,74.88
2022-08-21T06:23:49.756Z,75.22
2022-08-21T06:26:18.149Z,74.61
2022-08-21T06:28:47.620Z,75.03
2022-08-21T06:31:19.774Z,73.49
2022-08-21T06:33:48.406Z,73.31
2022-08-21T06:36:17.258Z,73.10
2022-08-21T06:38:50.931Z,72.89
2022-08-21T06:41:23.837Z,72.32
2022-08-21T06:43:54.120Z,72.42
2022-08-21T06:46:22.033Z,73.14
2022-08-21T06:48:50.439Z,73.51
2022-08-21T06:51:18.581Z,72.63
2022-08-21T06:53:46.854Z,71.94
2022-08-21T06:56:14.809Z,74.74
2022-08-21T06:58:42.632Z,73.97
2022-08-21T07:01:11.826Z,72.96
2022-08-21T07:03:42.078Z,72.49
2022-08-21T07:06:12.226Z,73.08
2022-08-21T07:08:40.769Z,71.96
2022-08-21T07:11:16.513Z,72.87
2022-08-21T07:13:44.452Z,72.56
2022-08-21T07:16:14.733Z,72.11
2022-08-21T07:18:42.753Z,72.36
2022-08-21T07:21:11.437Z,73.45
2022-08-21T07:23:43.944Z,70.81
2022-08-21T07:26:12.212Z,71.02
2022-08-21T07:28:40.501Z,71.92
2022-08-21T07:31:08.359Z,70.48
2022-08-21T07:33:38.336Z,69.45
2022-08-21T07:36:06.921Z,69.16
2022-08-21T07:38:34.793Z,68.87
2022-08-21T07:41:03.937Z,68.80
2022-08-21T07:43:31.923Z,71.78
2022-08-21T07:45:59.902Z,68.77
2022-08-21T07:48:27.808Z,67.55
2022-08-21T07:50:57.461Z,67.69
2022-08-21T07:53:25.276Z,66.05
2022-08-21T07:55:53.124Z,66.44
2022-08-21T07:58:20.965Z,66.73
2022-08-21T08:00:49.156Z,66.29
2022-08-21T08:03:20.561Z,66.33
2022-08-21T08:05:59.391Z,66.53
2022-08-21T08:08:28.572Z,64.72
2022-08-21T08:10:59.954Z,65.79
2022-08-21T08:13:28.035Z,68.83
2022-08-21T08:15:55.895Z,67.51
2022-08-21T08:18:24.025Z,67.82
2022-08-21T08:20:51.924Z,66.21
2022-08-21T08:23:21.096Z,67.44
2022-08-21T08:25:49.145Z,67.34
2022-08-21T08:28:17.921Z,64.88
2022-08-21T08:30:47.313Z,64.74
2022-08-21T08:33:16.560Z,64.82
2022-08-21T08:35:48.509Z,63.93
2022-08-21T08:38:20.773Z,64.65
2022-08-21T08:41:02.830Z,66.25
2022-08-21T08:43:33.718Z,64.39
2022-08-21T08:46:08.301Z,64.37
2022-08-21T08:48:53.261Z,65.37
2022-08-21T08:51:29.836Z,63.78
2022-08-21T08:54:04.685Z,65.26
2022-08-21T08:56:36.002Z,64.83
2022-08-21T08:59:15.256Z,63.34
2022-08-21T09:01:44.392Z,65.07
2022-08-21T09:04:14.486Z,64.26
2022-08-21T09:07:14.533Z,64.18
2022-08-21T09:10:05.235Z,63.64
2022-08-21T09:12:50.828Z,64.83
2022-08-21T09:15:33.923Z,63.37
2022-08-21T09:18:19.774Z,63.02
2022-08-21T09:21:04.017Z,63.13
2022-08-21T09:23:44.267Z,62.11
2022-08-21T09:26:17.351Z,63.42
2022-08-21T09:28:53.350Z,61.47
2022-08-21T09:31:27.332Z,62.77
2022-08-21T09:34:00.916Z,63.74
2022-08-21T09:36:42.325Z,62.71
2022-08-21T09:39:14.261Z,61.35
2022-08-21T09:41:42.835Z,59.58
2022-08-21T09:44:12.034Z,60.83
2022-08-21T09:46:40.001Z,60.89
2022-08-21T09:49:13.459Z,59.35
2022-08-21T09:51:55.078Z,61.56
2022-08-21T09:54:31.752Z,60.75
2022-08-21T09:57:20.397Z,61.17
2022-08-21T09:59:49.656Z,59.02
2022-08-21T10:02:28.965Z,58.20
2022-08-21T10:05:02.325Z,58.68
2022-08-21T10:07:33.849Z,59.20
2022-08-21T10:10:06.808Z,59.18
2022-08-21T10:12:51.829Z,60.82
2022-08-21T10:15:33.520Z,61.16
2022-08-21T10:18:14.897Z,59.28
2022-08-21T10:20:53.201Z,59.18
2022-08-21T10:23:42.286Z,59.07
2022-08-21T10:26:33.137Z,58.43
2022-08-21T10:29:14.611Z,58.41
2022-08-21T10:31:54.650Z,57.32
2022-08-21T10:34:41.751Z,55.80
2022-08-21T10:37:28.589Z,57.06
2022-08-21T10:40:17.480Z,57.37
2022-08-21T10:43:15.552Z,57.28
2022-08-21T10:46:04.738Z,57.14
2022-08-21T10:48:41.482Z,56.44
2022-08-21T10:51:28.897Z,55.72
2022-08-21T10:54:07.370Z,54.47
2022-08-21T10:56:42.281Z,55.36
2022-08-21T10:59:33.253Z,55.00
2022-08-21T11:02:15.249Z,53.82
2022-08-21T11:05:04.441Z,52.92
2022-08-21T11:07:38.148Z,50.71
2022-08-21T11:10:14.726Z,51.69
2022-08-21T11:12:51.674Z,50.77
2022-08-21T11:15:33.999Z,49.81
2022-08-21T11:18:21.259Z,50.20
2022-08-21T11:21:05.764Z,49.91
2022-08-21T11:23:46.106Z,50.21
2022-08-21T11:26:25.516Z,50.61
2022-08-21T11:29:03.375Z,49.48
2022-08-21T11:31:49.029Z,50.19
2022-08-21T11:34:37.342Z,49.70
2022-08-21T11:37:18.078Z,49.86
2022-08-21T11:40:04.489Z,48.93
2022-08-21T11:42:47.920Z,50.54
2022-08-21T11:45:28.377Z,50.01
2022-08-21T11:48:14.094Z,50.42
2022-08-21T11:50:45.816Z,50.66
2022-08-21T11:53:22.271Z,49.65
2022-08-21T11:55:58.893Z,49.76
2022-08-21T11:58:38.121Z,49.44
2022-08-21T12:01:11.438Z,49.66
2022-08-21T12:03:44.846Z,48.67
2022-08-21T12:06:24.466Z,50.32
2022-08-21T12:09:04.205Z,49.84
2022-08-21T12:11:32.814Z,48.73
2022-08-21T12:14:15.433Z,49.09
2022-08-21T12:16:47.088Z,48.44
2022-08-21T12:19:31.875Z,49.98
2022-08-21T12:22:11.587Z,49.14
2022-08-21T12:24:44.996Z,48.59
2022-08-21T12:27:28.059Z,49.24
2022-08-21T12:30:02.318Z,49.24
2022-08-21T12:32:43.723Z,49.29
2022-08-21T12:35:23.254Z,48.86
2022-08-21T12:38:03.231Z,47.74
2022-08-21T12:40:42.289Z,50.08
2022-08-21T12:43:20.581Z,48.70
2022-08-21T12:45:53.347Z,49.26
2022-08-21T12:48:28.935Z,50.37
2022-08-21T12:51:01.615Z,49.63
2022-08-21T12:53:36.632Z,50.69
2022-08-21T12:56:11.804Z,50.70
2022-08-21T12:58:46.804Z,50.45
2022-08-21T13:01:24.607Z,50.00
2022-08-21T13:04:04.144Z,50.43
2022-08-21T13:06:41.310Z,50.83
2022-08-21T13:09:14.768Z,50.74
2022-08-21T13:11:47.615Z,51.12
2022-08-21T13:14:27.123Z,49.44
2022-08-21T13:16:57.753Z,49.71
2022-08-21T13:19:30.570Z,50.86
2022-08-21T13:21:58.856Z,51.40
2022-08-21T13:24:42.313Z,51.52
2022-08-21T13:27:27.426Z,50.29
2022-08-21T13:30:11.726Z,51.38
2022-08-21T13:32:45.575Z,50.95
2022-08-21T13:35:20.926Z,51.39
2022-08-21T13:37:52.720Z,51.33
2022-08-21T13:40:27.317Z,52.52
2022-08-21T13:42:58.244Z,53.09
2022-08-21T13:45:31.935Z,53.02
2022-08-21T13:48:06.486Z,52.21
2022-08-21T13:50:39.382Z,52.39
2022-08-21T13:53:21.789Z,51.85
2022-08-21T13:55:50.733Z,50.79
2022-08-21T13:58:29.601Z,52.03
2022-08-21T14:01:01.246Z,52.78
2022-08-21T14:03:38.326Z,51.61
2022-08-21T14:06:16.515Z,51.26
2022-08-21T14:08:51.625Z,51.40
2022-08-21T14:11:20.351Z,52.48
2022-08-21T14:13:58.282Z,52.91
2022-08-21T14:16:29.898Z,51.49
2022-08-21T14:19:19.319Z,51.79
2022-08-21T14:21:47.869Z,53.09
2022-08-21T14:24:30.393Z,53.02
2022-08-21T14:27:06.685Z,52.22
2022-08-21T14:29:40.019Z,52.88
2022-08-21T14:32:21.949Z,52.83
2022-08-21T14:34:54.699Z,53.03
2022-08-21T14:37:23.287Z,52.41
2022-08-21T14:39:51.504Z,51.90
2022-08-21T14:42:19.640Z,52.08
2022-08-21T14:44:49.417Z,51.46
2022-08-21T14:47:17.644Z,51.40
2022-08-21T14:49:45.540Z,50.65
2022-08-21T14:52:13.367Z,51.38
2022-08-21T14:54:41.301Z,53.54
2022-08-21T14:57:13.026Z,52.93
2022-08-21T14:59:41.491Z,52.90
2022-08-21T15:02:11.648Z,53.56
2022-08-21T15:04:39.649Z,52.73
2022-08-21T15:07:07.526Z,53.04
2022-08-21T15:09:35.361Z,52.80
2022-08-21T15:12:06.065Z,52.55
2022-08-21T15:14:40.992Z,52.40
2022-08-21T15:17:13.020Z,52.75
2022-08-21T15:19:41.266Z,53.48
2022-08-21T15:22:18.700Z,53.23
2022-08-21T15:24:48.343Z,52.85
2022-08-21T15:27:20.229Z,53.02
2022-08-21T15:29:48.149Z,53.13
2022-08-21T15:32:25.449Z,53.56
2022-08-21T15:34:55.432Z,52.62
2022-08-21T15:37:25.806Z,53.13
2022-08-21T15:39:55.222Z,52.64
2022-08-21T15:42:24.498Z,53.61
2022-08-21T15:44:54.425Z,54.97
2022-08-21T15:47:30.360Z,54.66
2022-08-21T15:49:58.444Z,54.28
2022-08-21T15:52:26.392Z,53.67
2022-08-21T15:54:54.716Z,53.38
2022-08-21T15:57:25.843Z,54.29
2022-08-21T15:59:58.791Z,54.62
2022-08-21T16:02:32.375Z,54.27
2022-08-21T16:05:01.350Z,51.43
2022-08-21T16:07:29.161Z,51.09
2022-08-21T16:09:57.110Z,51.32
2022-08-21T16:12:28.944Z,51.08
2022-08-21T16:14:56.896Z,50.84
2022-08-21T16:17:32.520Z,52.76
2022-08-21T16:20:02.224Z,52.62
2022-08-21T16:22:42.172Z,53.77
2022-08-21T16:25:14.236Z,52.94
2022-08-21T16:27:46.076Z,51.80
2022-08-21T16:30:16.663Z,51.51
2022-08-21T16:32:47.899Z,53.09
2022-08-21T16:35:20.771Z,52.63
2022-08-21T16:37:52.969Z,51.79
2022-08-21T16:40:23.125Z,52.83
2022-08-21T16:42:51.406Z,51.49
2022-08-21T16:45:22.162Z,52.05
2022-08-21T16:47:51.494Z,52.68
2022-08-21T16:50:25.767Z,53.02
2022-08-21T16:52:54.489Z,53.13
2022-08-21T16:55:22.486Z,52.71
2022-08-21T16:57:50.381Z,52.15
2022-08-21T17:00:18.312Z,52.54
2022-08-21T17:02:53.433Z,52.26
2022-08-21T17:05:21.784Z,52.78
2022-08-21T17:07:49.774Z,52.33
2022-08-21T17:10:19.104Z,52.17
2022-08-21T17:12:55.798Z,51.54
2022-08-21T17:15:28.340Z,51.11
2022-08-21T17:17:57.619Z,51.51
2022-08-21T17:20:26.383Z,53.28
2022-08-21T17:22:55.339Z,51.31
2022-08-21T17:25:23.497Z,51.68
2022-08-21T17:27:52.222Z,51.10
2022-08-21T17:30:21.468Z,51.00
2022-08-21T17:32:53.818Z,51.76
2022-08-21T17:35:23.324Z,51.73
2022-08-21T17:37:53.306Z,51.84
2022-08-21T17:40:22.286Z,51.83
2022-08-21T17:42:50.407Z,52.23
2022-08-21T17:45:21.519Z,51.07
2022-08-21T17:47:49.388Z,51.93
2022-08-21T17:50:23.521Z,50.70
2022-08-21T17:52:52.498Z,50.40
2022-08-21T17:55:22.551Z,51.09
2022-08-21T17:57:53.329Z,50.98
2022-08-21T18:00:24.782Z,50.82
2022-08-21T18:03:02.930Z,50.97
2022-08-21T18:05:33.548Z,50.77
2022-08-21T18:08:01.585Z,52.06
2022-08-21T18:10:30.016Z,53.00
2022-08-21T18:12:58.776Z,52.57
2022-08-21T18:15:27.057Z,53.69
2022-08-21T18:17:55.185Z,53.87
2022-08-21T18:20:24.584Z,53.26
2022-08-21T18:22:53.796Z,52.46
2022-08-21T18:25:21.836Z,53.13
2022-08-21T18:27:51.061Z,53.59
2022-08-21T18:30:25.557Z,53.82
2022-08-21T18:32:56.095Z,53.77
2022-08-21T18:35:24.483Z,54.87
2022-08-21T18:37:53.727Z,54.68
2022-08-21T18:40:22.323Z,54.72
2022-08-21T18:42:55.784Z,55.12
2022-08-21T18:45:27.085Z,55.78
2022-08-21T18:47:58.296Z,55.91
2022-08-21T18:50:29.197Z,56.07
2022-08-21T18:52:58.526Z,55.89
2022-08-21T18:55:27.380Z,55.79
2022-08-21T18:57:57.331Z,55.40
2022-08-21T19:00:30.455Z,55.21
2022-08-21T19:02:59.399Z,55.64
2022-08-21T19:05:28.020Z,57.68
2022-08-21T19:07:58.018Z,57.59
2022-08-21T19:10:29.369Z,58.58
2022-08-21T19:13:00.596Z,58.13
2022-08-21T19:15:29.754Z,57.97
2022-08-21T19:17:59.535Z,57.53
2022-08-21T19:20:34.347Z,57.66
2022-08-21T19:23:07.426Z,57.01
2022-08-21T19:25:36.674Z,57.11
2022-08-21T19:28:11.653Z,56.90
2022-08-21T19:30:45.955Z,57.48
2022-08-21T19:33:35.969Z,57.56
2022-08-21T19:36:06.010Z,56.52
2022-08-21T19:38:35.721Z,57.64
2022-08-21T19:41:08.147Z,56.87
2022-08-21T19:43:43.504Z,57.35
2022-08-21T19:46:12.851Z,57.87
2022-08-21T19:48:40.767Z,57.77
2022-08-21T19:51:14.730Z,57.74
2022-08-21T19:53:44.112Z,57.72
2022-08-21T19:56:23.333Z,58.09
2022-08-21T19:58:52.352Z,58.26
2022-08-21T20:01:24.656Z,58.24
2022-08-21T20:03:55.460Z,58.17
2022-08-21T20:06:26.494Z,57.99
2022-08-21T20:08:56.503Z,57.74
2022-08-21T20:11:35.531Z,58.19
2022-08-21T20:14:03.669Z,58.14
2022-08-21T20:16:32.199Z,59.12
2022-08-21T20:19:03.427Z,59.20
2022-08-21T20:21:43.686Z,61.06
2022-08-21T20:24:15.517Z,60.73
2022-08-21T20:32:22.644Z,60.81
2022-08-21T20:34:51.935Z,61.25
2022-08-21T20:37:22.386Z,60.29
2022-08-21T20:40:11.462Z,60.58
2022-08-21T20:42:40.634Z,60.92
2022-08-21T20:45:10.520Z,60.34
2022-08-21T20:47:40.233Z,60.18
2022-08-21T20:50:14.487Z,60.26
2022-08-21T20:52:43.298Z,60.08
2022-08-21T20:55:18.142Z,60.43
2022-08-21T20:57:57.692Z,60.36
2022-08-21T21:00:33.725Z,60.79
2022-08-21T21:03:10.800Z,61.44
2022-08-21T21:05:49.024Z,61.31
2022-08-21T21:08:25.251Z,61.99
2022-08-21T21:10:59.387Z,61.53
2022-08-21T21:13:34.445Z,61.29
2022-08-21T21:16:12.814Z,60.81
2022-08-21T21:18:46.144Z,61.06
2022-08-21T21:21:25.180Z,61.31
2022-08-21T21:24:03.400Z,61.32
2022-08-21T21:26:39.602Z,61.35
2022-08-21T21:29:22.122Z,61.48
2022-08-21T21:31:52.919Z,61.60
2022-08-21T21:34:22.264Z,60.94
2022-08-21T21:37:03.825Z,60.81
2022-08-21T21:39:44.618Z,60.75
2022-08-21T21:42:30.560Z,60.97
2022-08-21T21:45:20.493Z,61.66
2022-08-21T21:48:21.128Z,61.40
2022-08-21T21:51:00.976Z,61.19
2022-08-21T21:53:51.616Z,61.31
2022-08-21T21:56:32.839Z,60.88
2022-08-21T21:59:25.867Z,61.60
2022-08-21T22:02:07.085Z,61.76
2022-08-21T22:04:51.112Z,62.12
2022-08-21T22:07:32.194Z,61.90
2022-08-21T22:10:19.837Z,62.10
2022-08-21T22:13:11.157Z,61.45
2022-08-21T22:15:41.602Z,60.70
2022-08-21T22:18:16.047Z,61.10
2022-08-21T22:20:53.854Z,61.76
2022-08-21T22:23:28.942Z,61.82
2022-08-21T22:26:05.256Z,62.92
2022-08-21T22:28:42.262Z,64.01
2022-08-21T22:31:22.235Z,63.76
2022-08-21T22:34:14.298Z,65.02
2022-08-21T22:36:55.478Z,65.74
2022-08-21T22:39:37.776Z,65.61
2022-08-21T22:42:13.492Z,66.06
2022-08-21T22:44:53.822Z,66.29
2022-08-21T22:47:27.136Z,66.51
2022-08-21T22:50:02.300Z,67.00
2022-08-21T22:52:36.874Z,66.94
2022-08-21T22:58:20.714Z,68.47
2022-08-21T23:00:55.334Z,68.55
2022-08-21T23:03:34.231Z,68.61
2022-08-21T23:06:22.229Z,69.20
2022-08-21T23:08:52.352Z,69.36
2022-08-21T23:11:25.308Z,69.82
2022-08-21T23:13:56.953Z,70.29
2022-08-21T23:16:47.530Z,70.57
2022-08-21T23:19:37.979Z,71.46
2022-08-21T23:22:29.197Z,71.64
2022-08-21T23:25:16.468Z,71.88
2022-08-21T23:28:04.122Z,72.18
2022-08-21T23:30:43.977Z,71.63
2022-08-21T23:33:47.357Z,71.11
2022-08-21T23:36:47.845Z,69.91
2022-08-21T23:39:32.625Z,70.15
2022-08-21T23:42:12.495Z,69.92
2022-08-21T23:44:54.823Z,69.76
2022-08-21T23:47:38.408Z,69.64
2022-08-21T23:50:14.659Z,69.89
2022-08-21T23:53:08.903Z,70.95
2022-08-21T23:55:55.796Z,71.20
2022-08-21T23:58:40.623Z,71.39
